Aérodrome :
LOGIN :

S'inscrire | Disclaimer

   EN    FR    IT 

 










Légende :    VFR   VFR Marginal   IFR   IFR Intensif   IFR Très Intensif
Visi : 
Plafond : 
>= 8 km
>= 3000ft
5 à 8 km
1000 à 3000 ft
1500m à 5 km
500 à 1000 ft
800 à 1500m
200 à 500 ft
< 800m
< 200 ft
Symboles :   Orages  Brouillard  Fortes neiges  Fortes précipitations  Vent > 20 kt
SIGMETs :   Divers  Orages  Givrage  Turbulence  Onde Orograph.  Cendres Volcan.







- Altitude de l'aérodrome : 386 ft
- Code IATA : QOE


ETNN - Nörvenich Airforce Base

DERNIER METAR :
  • 251420Z 26015KT 9999 SCT030 BKN070 BKN180 08/M00 Q1010 BLU BLU TEMPO GRN

METARs EXPIRÉS :
  • 251320Z 30016KT 9999 SCT040CB BKN080 08/M00 Q1010 BLU BLU TEMPO GRN
  • 251220Z 29015KT 9999 SCT040 SCT190 08/M00 Q1010 BLU+BLU+ TEMPO GRN

TAF TAF ETNN
Valide du 25 à 14h jusqu'au 25 à 23h UTC


251307Z 2514/2523 29012G22KT 9999 NSW SCT030 SCT150
TEMPO 2514/2519 31020G30KT 4500 SHRA SCT010 BKN020CB
PROB30 2514/2518 32020G30KT 3000 TSRAGS BKN010 BKN015CB BY ETGL
Pas de NOTAMs connus pour ce terrain.



MET'MAP, la Météo Aéronautique d'un coup d'oeil ! - Copyright ORBIFLY Décembre 2007 - Disclaimer

ORBIFLY MET'MAP TEAM :

Programmation & Développement : Alexandra Zaïnal
Conception & Développement : Baudouin d'Aumeries
Co-Programmation & Développement : Marc-Olivier Méhu
Soutien technique & logistique : Manuel Goepfert

Contact : metmap@orbifly.com




SOURCES & CREDITS :

   NOAA